CDT,Max TemperatureF,Mean TemperatureF,Min TemperatureF,Max Dew PointF,MeanDew PointF,Min DewpointF,Max Humidity, Mean Humidity, Min Humidity, Max Sea Level PressureIn, Mean Sea Level PressureIn, Min Sea Level PressureIn, Max VisibilityMiles, Mean VisibilityMiles, Min VisibilityMiles, Max Wind SpeedMPH, Mean Wind SpeedMPH, Max Gust SpeedMPH,PrecipitationIn, CloudCover, Events, WindDirDegrees
2012-10-1,71,70,69,66,63,61,83,76,73,29.66,29.63,29.57,7,7,7,28,24,,0.00,7,,277
2012-10-2,77,70,68,68,66,64,88,80,74,29.90,29.86,29.79,7,7,7,8,7,,0.00,2,,260
2012-10-3,82,72,68,73,68,66,94,77,69,30.09,30.04,29.98,7,7,7,23,15,40,0.00,4,Rain-Thunderstorm,60
2012-10-4,78,75,75,73,73,73,94,88,83,30.17,30.15,30.13,7,7,7,13,10,,0.00,3,,50
2012-10-5,89,78,78,73,72,70,83,68,52,30.10,30.05,29.99,7,7,7,8,8,,0.00,2,,45
2012-10-6,73,,73,70,70,70,88,88,88,29.97,29.97,29.97,7,7,7,6,6,,0.00,0,,340
2012-10-7,71,71,71,70,67,64,94,86,78,30.09,30.04,29.99,7,7,7,24,22,,0.00,6,,180
2012-10-8,73,66,66,68,62,59,83,82,78,30.13,30.07,30.04,7,7,7,21,14,,0.00,1,,3
2012-10-9,73,66,66,66,64,63,88,83,78,30.11,30.09,30.07,7,7,7,10,10,,0.00,4,,5
2012-10-10,84,71,71,73,72,70,94,82,70,30.12,30.10,30.08,7,7,7,7,7,,0.00,2,,25
2012-10-11,78,73,73,77,72,68,94,88,83,30.22,30.17,30.13,7,7,7,12,8,,0.00,1,,45
2012-10-12,80,73,73,73,72,70,88,84,79,30.23,30.19,30.14,7,7,7,10,10,,0.00,3,,350
2012-10-13,86,78,75,75,74,72,89,81,70,30.17,30.14,30.10,7,7,7,12,10,,0.00,2,,97
2012-10-14,84,80,78,73,73,72,78,74,70,30.04,30.04,30.04,7,7,7,12,8,,0.00,2,,130
2012-10-15,78,77,77,73,73,73,89,86,83,29.98,29.97,29.96,7,7,7,14,10,,0.00,4,,310
2012-10-16,84,73,73,75,70,64,74,74,73,29.94,29.92,29.90,7,7,7,15,15,,0.00,0,,60
2012-10-17,80,76,73,73,71,68,83,80,74,29.84,29.79,29.73,7,7,7,16,15,,0.00,5,,154
2012-10-18,78,78,75,75,73,72,89,89,89,29.82,29.77,29.73,7,7,7,16,12,25,0.00,2,,290
2012-10-19,75,71,71,63,61,59,73,65,57,29.87,29.87,29.86,7,7,7,14,14,,0.00,0,,310
2012-10-20,78,70,68,63,58,52,83,62,39,30.00,29.96,29.93,7,7,7,8,7,,0.00,0,,50
2012-10-21,80,74,71,68,64,57,69,65,60,30.10,30.05,30.00,7,7,7,13,10,,0.00,3,,90
2012-10-22,82,78,78,72,70,68,78,71,62,30.10,30.05,30.01,7,7,7,14,12,,0.00,0,,80
2012-10-23,82,78,75,72,70,68,78,74,70,30.04,30.01,29.99,7,7,7,13,10,,0.00,3,,67
2012-10-24,78,75,75,72,71,70,83,80,78,30.04,30.02,30.01,7,7,7,12,10,,0.00,0,,70
2012-10-25,80,75,75,70,68,66,73,72,70,29.98,29.98,29.98,7,7,7,13,13,,0.00,2,,40
2012-10-26,84,78,78,70,69,68,69,66,62,29.90,29.89,29.88,7,7,7,9,7,,0.00,0,,25
2012-10-27,62,61,60,59,57,55,88,86,82,30.00,29.95,29.92,7,7,7,26,24,26,0.00,7,,313
2012-10-28,62,55,53,52,50,48,88,76,68,30.07,30.03,30.00,7,7,7,25,22,29,0.00,0,,333
2012-10-29,55,53,53,48,46,43,77,72,67,30.17,30.15,30.12,7,7,7,26,23,26,0.00,0,,355
2012-10-30,57,55,53,46,46,45,77,72,63,30.12,30.08,30.02,7,7,7,17,14,,0.00,0,,285
2012-10-31,75,66,62,64,59,54,72,70,68,30.08,30.03,29.97,7,7,7,16,8,,0.00,0,,253